McKenzie, North Dakota
Current Conditions -  °F | °C
As of 9:52 AM on Saturday 20 Dec 2014 (Local Time) from KBIS Reporting Station
Overcast Overcast  
Wind Chill:   Ceiling: 400
Heat Index: 16°   Visibility: 8mi
Dew Point: 14°   Wind: 5mph
Humidity: 92%   Direction: 60°ENE
Pressure: 29.92"   Gusts: NA
Location:  46.82°N, 100.41°W
Report Text: KBIS 201552Z 06004KT 8SM BKN004 OVC095 M09/M10 A2992 RMK AO2 SLP162 I1000 T10891100
Loading
Personal Weather Stations






























Interactive Weather Map New forecast layout! Learn more

10-Day Weather Forecast

Advertisements
Track Severe Weather on mobile